sensor_id;sensor_type;location;lat;lon;timestamp;pressure;altitude;pressure_sealevel;temperature;humidity
8637;BME280;4356;49.068;8.658;2023-06-14T00:01:57;99400.41;;;27.01;30.09
8637;BME280;4356;49.068;8.658;2023-06-14T00:04:23;99397.41;;;26.97;30.39
8637;BME280;4356;49.068;8.658;2023-06-14T00:06:50;99400.47;;;26.96;30.33
8637;BME280;4356;49.068;8.658;2023-06-14T00:09:16;99399.94;;;26.94;30.47
8637;BME280;4356;49.068;8.658;2023-06-14T00:11:43;99393.88;;;26.92;30.17
8637;BME280;4356;49.068;8.658;2023-06-14T00:14:09;99401.03;;;26.93;30.25
8637;BME280;4356;49.068;8.658;2023-06-14T00:16:35;99398.03;;;26.89;30.46
8637;BME280;4356;49.068;8.658;2023-06-14T00:19:02;99405.47;;;26.89;30.44
8637;BME280;4356;49.068;8.658;2023-06-14T00:21:31;99403.00;;;26.87;30.52
8637;BME280;4356;49.068;8.658;2023-06-14T00:24:00;99403.00;;;26.87;30.55
8637;BME280;4356;49.068;8.658;2023-06-14T00:26:26;99393.66;;;26.83;30.63
8637;BME280;4356;49.068;8.658;2023-06-14T00:28:53;99399.16;;;26.83;30.50
8637;BME280;4356;49.068;8.658;2023-06-14T00:31:18;99392.31;;;26.81;30.28
8637;BME280;4356;49.068;8.658;2023-06-14T00:33:44;99394.53;;;26.79;30.24
8637;BME280;4356;49.068;8.658;2023-06-14T00:36:10;99393.16;;;26.76;30.60
8637;BME280;4356;49.068;8.658;2023-06-14T00:38:36;99389.06;;;26.74;30.40
8637;BME280;4356;49.068;8.658;2023-06-14T00:41:01;99388.53;;;26.72;30.22
8637;BME280;4356;49.068;8.658;2023-06-14T00:43:27;99378.09;;;26.64;30.44
8637;BME280;4356;49.068;8.658;2023-06-14T00:45:52;99388.84;;;26.70;30.47
8637;BME280;4356;49.068;8.658;2023-06-14T00:48:18;99396.81;;;26.72;30.40
8637;BME280;4356;49.068;8.658;2023-06-14T00:50:45;99381.66;;;26.64;30.45
8637;BME280;4356;49.068;8.658;2023-06-14T00:53:15;99384.13;;;26.66;30.57
8637;BME280;4356;49.068;8.658;2023-06-14T00:55:41;99382.25;;;26.61;30.41
8637;BME280;4356;49.068;8.658;2023-06-14T00:58:07;99385.56;;;26.63;30.63
8637;BME280;4356;49.068;8.658;2023-06-14T01:00:34;99385.00;;;26.61;30.76
8637;BME280;4356;49.068;8.658;2023-06-14T01:03:01;99393.81;;;26.63;30.65
8637;BME280;4356;49.068;8.658;2023-06-14T01:05:26;99397.13;;;26.60;30.62
8637;BME280;4356;49.068;8.658;2023-06-14T01:13:18;99404.31;;;26.56;30.75
8637;BME280;4356;49.068;8.658;2023-06-14T01:15:46;99388.13;;;26.50;30.43
8637;BME280;4356;49.068;8.658;2023-06-14T01:18:12;99404.38;;;26.51;30.68
8637;BME280;4356;49.068;8.658;2023-06-14T01:20:43;99413.16;;;26.53;30.63
8637;BME280;4356;49.068;8.658;2023-06-14T01:23:11;99409.88;;;26.51;30.73
8637;BME280;4356;49.068;8.658;2023-06-14T01:25:39;99403.28;;;26.47;30.75
8637;BME280;4356;49.068;8.658;2023-06-14T01:28:06;99404.94;;;26.48;30.86
8637;BME280;4356;49.068;8.658;2023-06-14T01:30:40;99407.16;;;26.46;30.90
8637;BME280;4356;49.068;8.658;2023-06-14T01:33:15;99403.63;;;26.40;30.85
8637;BME280;4356;49.068;8.658;2023-06-14T01:35:43;99402.00;;;26.39;30.72
8637;BME280;4356;49.068;8.658;2023-06-14T01:38:10;99401.75;;;26.36;30.89
8637;BME280;4356;49.068;8.658;2023-06-14T01:40:36;99405.84;;;26.38;30.79
8637;BME280;4356;49.068;8.658;2023-06-14T01:43:03;99402.53;;;26.36;31.11
8637;BME280;4356;49.068;8.658;2023-06-14T01:45:30;99405.03;;;26.33;30.90
8637;BME280;4356;49.068;8.658;2023-06-14T01:47:56;99407.78;;;26.33;30.98
8637;BME280;4356;49.068;8.658;2023-06-14T01:50:22;99420.19;;;26.35;30.86
8637;BME280;4356;49.068;8.658;2023-06-14T01:52:48;99409.22;;;26.30;30.80
8637;BME280;4356;49.068;8.658;2023-06-14T01:55:13;99405.06;;;26.28;30.95
8637;BME280;4356;49.068;8.658;2023-06-14T01:57:39;99393.56;;;26.21;30.70
8637;BME280;4356;49.068;8.658;2023-06-14T02:00:05;99405.38;;;26.26;31.12
8637;BME280;4356;49.068;8.658;2023-06-14T02:02:38;99407.59;;;26.24;30.77
8637;BME280;4356;49.068;8.658;2023-06-14T02:05:04;99410.34;;;26.24;30.96
8637;BME280;4356;49.068;8.658;2023-06-14T02:07:30;99405.13;;;26.23;30.96
8637;BME280;4356;49.068;8.658;2023-06-14T02:09:55;99386.19;;;26.06;30.83
8637;BME280;4356;49.068;8.658;2023-06-14T02:12:21;99414.75;;;26.20;30.92
8637;BME280;4356;49.068;8.658;2023-06-14T02:14:46;99406.53;;;26.15;31.21
8637;BME280;4356;49.068;8.658;2023-06-14T02:17:12;99412.59;;;26.17;30.95
8637;BME280;4356;49.068;8.658;2023-06-14T02:19:37;99417.25;;;26.17;31.11
8637;BME280;4356;49.068;8.658;2023-06-14T02:22:04;99405.69;;;26.15;31.13
8637;BME280;4356;49.068;8.658;2023-06-14T02:24:29;99397.22;;;26.06;31.33
8637;BME280;4356;49.068;8.658;2023-06-14T02:26:55;99421.69;;;26.13;31.14
8637;BME280;4356;49.068;8.658;2023-06-14T02:29:21;99418.66;;;26.09;31.09
8637;BME280;4356;49.068;8.658;2023-06-14T02:31:46;99416.22;;;26.08;31.24
8637;BME280;4356;49.068;8.658;2023-06-14T02:34:14;99422.84;;;26.07;31.35
8637;BME280;4356;49.068;8.658;2023-06-14T02:36:42;99422.28;;;26.05;31.39
8637;BME280;4356;49.068;8.658;2023-06-14T02:39:08;99413.75;;;26.01;31.26
8637;BME280;4356;49.068;8.658;2023-06-14T02:41:37;99426.97;;;26.04;31.24
8637;BME280;4356;49.068;8.658;2023-06-14T02:44:03;99426.13;;;26.04;31.28
8637;BME280;4356;49.068;8.658;2023-06-14T02:46:29;99422.81;;;26.02;31.26
8637;BME280;4356;49.068;8.658;2023-06-14T02:48:54;99421.47;;;25.99;31.51
8637;BME280;4356;49.068;8.658;2023-06-14T02:51:20;99407.72;;;25.89;31.34
8637;BME280;4356;49.068;8.658;2023-06-14T02:53:45;99420.38;;;25.95;31.23
8637;BME280;4356;49.068;8.658;2023-06-14T02:56:11;99407.19;;;25.87;31.52
8637;BME280;4356;49.068;8.658;2023-06-14T02:58:37;99422.00;;;25.96;31.42
8637;BME280;4356;49.068;8.658;2023-06-14T03:01:05;99421.19;;;25.96;31.36
8637;BME280;4356;49.068;8.658;2023-06-14T03:03:33;99423.94;;;25.96;31.25
8637;BME280;4356;49.068;8.658;2023-06-14T03:05:59;99425.88;;;25.95;31.50
8637;BME280;4356;49.068;8.658;2023-06-14T03:08:30;99420.41;;;25.90;31.54
8637;BME280;4356;49.068;8.658;2023-06-14T03:10:57;99411.34;;;25.85;31.30
8637;BME280;4356;49.068;8.658;2023-06-14T03:13:23;99421.78;;;25.88;31.52
8637;BME280;4356;49.068;8.658;2023-06-14T03:15:49;99417.94;;;25.84;31.29
8637;BME280;4356;49.068;8.658;2023-06-14T03:18:17;99417.69;;;25.85;31.60
8637;BME280;4356;49.068;8.658;2023-06-14T03:20:43;99426.72;;;25.86;31.28
8637;BME280;4356;49.068;8.658;2023-06-14T03:23:11;99413.03;;;25.76;31.37
8637;BME280;4356;49.068;8.658;2023-06-14T03:25:37;99422.63;;;25.78;31.51
8637;BME280;4356;49.068;8.658;2023-06-14T03:28:04;99426.75;;;25.81;31.39
8637;BME280;4356;49.068;8.658;2023-06-14T03:30:30;99422.38;;;25.75;31.41
8637;BME280;4356;49.068;8.658;2023-06-14T03:32:57;99427.06;;;25.79;31.42
8637;BME280;4356;49.068;8.658;2023-06-14T03:35:23;99440.81;;;25.79;31.55
8637;BME280;4356;49.068;8.658;2023-06-14T03:37:49;99440.25;;;25.77;31.41
8637;BME280;4356;49.068;8.658;2023-06-14T03:40:17;99446.06;;;25.76;31.48
8637;BME280;4356;49.068;8.658;2023-06-14T03:42:43;99427.63;;;25.66;31.61
8637;BME280;4356;49.068;8.658;2023-06-14T03:45:09;99438.63;;;25.71;31.45
8637;BME280;4356;49.068;8.658;2023-06-14T03:47:35;99448.53;;;25.72;31.63
8637;BME280;4356;49.068;8.658;2023-06-14T03:50:04;99455.72;;;25.68;31.59
8637;BME280;4356;49.068;8.658;2023-06-14T03:52:31;99468.91;;;25.71;31.41
8637;BME280;4356;49.068;8.658;2023-06-14T03:54:57;99458.16;;;25.70;31.77
8637;BME280;4356;49.068;8.658;2023-06-14T03:57:23;99459.84;;;25.61;31.51
8637;BME280;4356;49.068;8.658;2023-06-14T03:59:49;99460.41;;;25.58;31.55
8637;BME280;4356;49.068;8.658;2023-06-14T04:02:15;99469.19;;;25.65;31.66
8637;BME280;4356;49.068;8.658;2023-06-14T04:04:44;99480.22;;;25.65;31.47
8637;BME280;4356;49.068;8.658;2023-06-14T04:07:14;99488.47;;;25.65;31.90
8637;BME280;4356;49.068;8.658;2023-06-14T04:09:41;99485.72;;;25.65;31.78
8637;BME280;4356;49.068;8.658;2023-06-14T04:12:07;99481.03;;;25.60;31.81
8637;BME280;4356;49.068;8.658;2023-06-14T04:14:34;99484.34;;;25.57;31.74
8637;BME280;4356;49.068;8.658;2023-06-14T04:17:00;99482.44;;;25.58;31.69
8637;BME280;4356;49.068;8.658;2023-06-14T04:19:26;99496.75;;;25.60;31.58
8637;BME280;4356;49.068;8.658;2023-06-14T04:21:52;99496.75;;;25.60;31.57
8637;BME280;4356;49.068;8.658;2023-06-14T04:24:18;99499.78;;;25.58;31.69
8637;BME280;4356;49.068;8.658;2023-06-14T04:26:44;99501.41;;;25.59;31.65
8637;BME280;4356;49.068;8.658;2023-06-14T04:29:11;99502.53;;;25.58;31.45
8637;BME280;4356;49.068;8.658;2023-06-14T04:31:42;99502.78;;;25.57;31.88
8637;BME280;4356;49.068;8.658;2023-06-14T04:34:08;99498.13;;;25.52;31.65
8637;BME280;4356;49.068;8.658;2023-06-14T04:36:34;99504.19;;;25.54;31.71
8637;BME280;4356;49.068;8.658;2023-06-14T04:39:03;99480.53;;;25.38;31.96
8637;BME280;4356;49.068;8.658;2023-06-14T04:41:30;99506.94;;;25.49;31.93
8637;BME280;4356;49.068;8.658;2023-06-14T04:44:00;99506.41;;;25.47;31.72
8637;BME280;4356;49.068;8.658;2023-06-14T04:46:30;99521.22;;;25.51;31.86
8637;BME280;4356;49.068;8.658;2023-06-14T04:48:57;99510.25;;;25.41;31.76
8637;BME280;4356;49.068;8.658;2023-06-14T04:51:26;99528.13;;;25.49;31.99
8637;BME280;4356;49.068;8.658;2023-06-14T04:53:56;99527.00;;;25.50;31.87
8637;BME280;4356;49.068;8.658;2023-06-14T04:56:24;99532.50;;;25.50;32.10
8637;BME280;4356;49.068;8.658;2023-06-14T04:58:55;99530.03;;;25.48;31.88
8637;BME280;4356;49.068;8.658;2023-06-14T05:01:22;99533.34;;;25.50;32.01
8637;BME280;4356;49.068;8.658;2023-06-14T05:03:49;99523.44;;;25.44;32.06
8637;BME280;4356;49.068;8.658;2023-06-14T05:06:15;99525.13;;;25.40;31.97
8637;BME280;4356;49.068;8.658;2023-06-14T05:08:41;99523.72;;;25.37;31.97
8637;BME280;4356;49.068;8.658;2023-06-14T05:11:06;99546.25;;;25.50;31.84
8637;BME280;4356;49.068;8.658;2023-06-14T05:13:32;99538.28;;;25.48;32.09
8637;BME280;4356;49.068;8.658;2023-06-14T05:15:59;99535.00;;;25.41;32.00
8637;BME280;4356;49.068;8.658;2023-06-14T05:18:26;99528.66;;;25.40;31.79
8637;BME280;4356;49.068;8.658;2023-06-14T05:20:51;99543.22;;;25.51;31.90
8637;BME280;4356;49.068;8.658;2023-06-14T05:23:17;99525.13;;;25.40;31.89
8637;BME280;4356;49.068;8.658;2023-06-14T05:25:44;99544.91;;;25.52;32.10
8637;BME280;4356;49.068;8.658;2023-06-14T05:28:09;99539.97;;;25.49;32.05
8637;BME280;4356;49.068;8.658;2023-06-14T05:30:37;99524.28;;;25.39;31.90
8637;BME280;4356;49.068;8.658;2023-06-14T05:33:03;99549.84;;;25.50;32.03
8637;BME280;4356;49.068;8.658;2023-06-14T05:35:29;99533.88;;;25.42;32.06
8637;BME280;4356;49.068;8.658;2023-06-14T05:37:54;99535.00;;;25.41;31.99
8637;BME280;4356;49.068;8.658;2023-06-14T05:40:20;99550.69;;;25.51;31.86
8637;BME280;4356;49.068;8.658;2023-06-14T05:42:46;99555.06;;;25.52;31.91
8637;BME280;4356;49.068;8.658;2023-06-14T05:45:11;99564.16;;;25.52;31.70
8637;BME280;4356;49.068;8.658;2023-06-14T05:47:37;99569.38;;;25.49;31.28
8637;BME280;4356;49.068;8.658;2023-06-14T05:50:03;99576.53;;;25.44;31.34
8637;BME280;4356;49.068;8.658;2023-06-14T05:52:29;99566.88;;;25.37;31.06
8637;BME280;4356;49.068;8.658;2023-06-14T05:54:55;99552.31;;;25.21;31.45
8637;BME280;4356;49.068;8.658;2023-06-14T05:57:21;99560.28;;;25.18;31.49
8637;BME280;4356;49.068;8.658;2023-06-14T05:59:47;99575.66;;;25.24;31.50
8637;BME280;4356;49.068;8.658;2023-06-14T06:02:12;99572.91;;;25.24;31.36
8637;BME280;4356;49.068;8.658;2023-06-14T06:04:38;99572.09;;;25.23;31.50
8637;BME280;4356;49.068;8.658;2023-06-14T06:07:04;99571.00;;;25.19;31.49
8637;BME280;4356;49.068;8.658;2023-06-14T06:09:30;99582.00;;;25.24;31.40
8637;BME280;4356;49.068;8.658;2023-06-14T06:11:56;99567.69;;;25.22;31.42
8637;BME280;4356;49.068;8.658;2023-06-14T06:14:22;99575.94;;;25.22;31.56
8637;BME280;4356;49.068;8.658;2023-06-14T06:16:47;99573.19;;;25.22;31.63
8637;BME280;4356;49.068;8.658;2023-06-14T06:19:13;99585.03;;;25.23;31.50
8637;BME280;4356;49.068;8.658;2023-06-14T06:21:38;99553.66;;;25.09;31.57
8637;BME280;4356;49.068;8.658;2023-06-14T06:24:05;99584.19;;;25.22;31.42
8637;BME280;4356;49.068;8.658;2023-06-14T06:26:31;99591.91;;;25.25;31.55
8637;BME280;4356;49.068;8.658;2023-06-14T06:28:58;99588.88;;;25.22;31.45
8637;BME280;4356;49.068;8.658;2023-06-14T06:31:24;99591.09;;;25.20;31.50
8637;BME280;4356;49.068;8.658;2023-06-14T06:33:50;99600.97;;;25.21;31.50
8637;BME280;4356;49.068;8.658;2023-06-14T06:36:16;99594.09;;;25.18;31.36
8637;BME280;4356;49.068;8.658;2023-06-14T06:38:42;99586.94;;;25.12;31.49
8637;BME280;4356;49.068;8.658;2023-06-14T06:41:07;99606.19;;;25.22;31.39
8637;BME280;4356;49.068;8.658;2023-06-14T06:43:33;99598.22;;;25.21;31.36
8637;BME280;4356;49.068;8.658;2023-06-14T06:45:59;99602.88;;;25.20;31.35
8637;BME280;4356;49.068;8.658;2023-06-14T06:48:24;99590.25;;;25.19;31.57
8637;BME280;4356;49.068;8.658;2023-06-14T06:50:50;99603.44;;;25.22;31.48
8637;BME280;4356;49.068;8.658;2023-06-14T06:53:16;99601.81;;;25.21;31.42
8637;BME280;4356;49.068;8.658;2023-06-14T06:55:44;99608.66;;;25.24;31.42
8637;BME280;4356;49.068;8.658;2023-06-14T06:58:11;99609.50;;;25.24;31.27
8637;BME280;4356;49.068;8.658;2023-06-14T07:00:37;99612.81;;;25.26;31.28
8637;BME280;4356;49.068;8.658;2023-06-14T07:03:03;99623.25;;;25.29;31.38
8637;BME280;4356;49.068;8.658;2023-06-14T07:05:29;99611.44;;;25.29;31.30
8637;BME280;4356;49.068;8.658;2023-06-14T07:07:57;99609.78;;;25.28;31.22
8637;BME280;4356;49.068;8.658;2023-06-14T07:10:23;99626.34;;;25.38;31.49
8637;BME280;4356;49.068;8.658;2023-06-14T07:12:50;99629.09;;;25.38;31.14
8637;BME280;4356;49.068;8.658;2023-06-14T07:15:16;99623.00;;;25.36;31.21
8637;BME280;4356;49.068;8.658;2023-06-14T07:17:42;99628.25;;;25.42;31.17
8637;BME280;4356;49.068;8.658;2023-06-14T07:20:08;99631.84;;;25.43;31.22
8637;BME280;4356;49.068;8.658;2023-06-14T07:22:40;99620.56;;;25.44;31.08
8637;BME280;4356;49.068;8.658;2023-06-14T07:25:08;99620.28;;;25.46;31.16
8637;BME280;4356;49.068;8.658;2023-06-14T07:27:34;99627.16;;;25.54;31.05
8637;BME280;4356;49.068;8.658;2023-06-14T07:29:59;99633.22;;;25.56;31.05
8637;BME280;4356;49.068;8.658;2023-06-14T07:32:25;99639.28;;;25.58;31.26
8637;BME280;4356;49.068;8.658;2023-06-14T07:34:51;99634.34;;;25.60;31.29
8637;BME280;4356;49.068;8.658;2023-06-14T07:37:16;99624.41;;;25.54;31.19
8637;BME280;4356;49.068;8.658;2023-06-14T07:39:42;99638.44;;;25.62;30.95
8637;BME280;4356;49.068;8.658;2023-06-14T07:42:07;99641.22;;;25.67;30.97
8637;BME280;4356;49.068;8.658;2023-06-14T07:44:33;99640.94;;;25.69;30.98
8637;BME280;4356;49.068;8.658;2023-06-14T07:46:59;99636.78;;;25.71;31.01
8637;BME280;4356;49.068;8.658;2023-06-14T07:49:26;99634.88;;;25.72;31.03
8637;BME280;4356;49.068;8.658;2023-06-14T07:51:51;99643.66;;;25.79;31.04
8637;BME280;4356;49.068;8.658;2023-06-14T07:54:18;99612.84;;;25.67;30.77
8637;BME280;4356;49.068;8.658;2023-06-14T07:56:44;99643.41;;;25.85;30.91
8637;BME280;4356;49.068;8.658;2023-06-14T07:59:09;99636.78;;;25.86;30.92
8637;BME280;4356;49.068;8.658;2023-06-14T08:01:35;99625.78;;;25.86;30.95
8637;BME280;4356;49.068;8.658;2023-06-14T08:04:01;99634.03;;;25.91;30.87
8637;BME280;4356;49.068;8.658;2023-06-14T08:06:27;99628.78;;;25.95;30.87
8637;BME280;4356;49.068;8.658;2023-06-14T08:08:53;99620.53;;;25.95;30.66
8637;BME280;4356;49.068;8.658;2023-06-14T08:11:19;99627.69;;;25.96;30.60
8637;BME280;4356;49.068;8.658;2023-06-14T08:13:44;99633.47;;;25.99;30.63
8637;BME280;4356;49.068;8.658;2023-06-14T08:16:10;99633.19;;;26.01;30.77
8637;BME280;4356;49.068;8.658;2023-06-14T08:18:36;99630.16;;;26.02;30.63
8637;BME280;4356;49.068;8.658;2023-06-14T08:21:01;99637.34;;;26.08;30.63
8637;BME280;4356;49.068;8.658;2023-06-14T08:23:28;99634.31;;;26.10;30.76
8637;BME280;4356;49.068;8.658;2023-06-14T08:25:54;99642.56;;;26.15;30.44
8637;BME280;4356;49.068;8.658;2023-06-14T08:28:20;99633.22;;;26.16;30.56
8637;BME280;4356;49.068;8.658;2023-06-14T08:30:46;99634.28;;;26.20;30.50
8637;BME280;4356;49.068;8.658;2023-06-14T08:33:11;99636.78;;;26.21;30.35
8637;BME280;4356;49.068;8.658;2023-06-14T08:35:37;99637.03;;;26.25;30.38
8637;BME280;4356;49.068;8.658;2023-06-14T08:38:05;99635.63;;;26.27;30.26
8637;BME280;4356;49.068;8.658;2023-06-14T08:40:31;99637.84;;;26.30;30.66
8637;BME280;4356;49.068;8.658;2023-06-14T08:42:56;99639.50;;;26.31;30.52
8637;BME280;4356;49.068;8.658;2023-06-14T08:45:23;99649.41;;;26.37;30.64
8637;BME280;4356;49.068;8.658;2023-06-14T08:47:50;99653.25;;;26.41;30.41
8637;BME280;4356;49.068;8.658;2023-06-14T08:50:24;99642.75;;;26.43;30.17
8637;BME280;4356;49.068;8.658;2023-06-14T08:52:57;99645.25;;;26.45;30.25
8637;BME280;4356;49.068;8.658;2023-06-14T08:55:26;99636.72;;;26.47;30.15
8637;BME280;4356;49.068;8.658;2023-06-14T08:57:57;99646.88;;;26.51;30.33
8637;BME280;4356;49.068;8.658;2023-06-14T09:00:26;99651.56;;;26.56;30.13
8637;BME280;4356;49.068;8.658;2023-06-14T09:02:53;99644.66;;;26.53;30.04
8637;BME280;4356;49.068;8.658;2023-06-14T09:05:26;99641.59;;;26.65;30.17
8637;BME280;4356;49.068;8.658;2023-06-14T09:07:52;99637.19;;;26.64;30.09
8637;BME280;4356;49.068;8.658;2023-06-14T09:10:20;99629.75;;;26.64;30.09
8637;BME280;4356;49.068;8.658;2023-06-14T09:12:46;99627.81;;;26.65;30.07
8637;BME280;4356;49.068;8.658;2023-06-14T09:15:13;99636.09;;;26.70;29.92
8637;BME280;4356;49.068;8.658;2023-06-14T09:17:39;99639.06;;;26.78;29.81
8637;BME280;4356;49.068;8.658;2023-06-14T09:20:07;99642.09;;;26.82;30.15
8637;BME280;4356;49.068;8.658;2023-06-14T09:22:37;99640.72;;;26.84;29.79
8637;BME280;4356;49.068;8.658;2023-06-14T09:25:03;99633.53;;;26.83;29.76
8637;BME280;4356;49.068;8.658;2023-06-14T09:27:30;99631.59;;;26.84;29.75
8637;BME280;4356;49.068;8.658;2023-06-14T09:29:56;99635.41;;;26.93;29.74
8637;BME280;4356;49.068;8.658;2023-06-14T09:32:22;99644.78;;;26.97;29.81
8637;BME280;4356;49.068;8.658;2023-06-14T09:34:49;99638.16;;;26.98;29.71
8637;BME280;4356;49.068;8.658;2023-06-14T09:37:31;99645.03;;;27.00;29.61
8637;BME280;4356;49.068;8.658;2023-06-14T09:39:58;99645.28;;;27.04;29.64
8637;BME280;4356;49.068;8.658;2023-06-14T09:42:24;99635.38;;;26.98;29.84
8637;BME280;4356;49.068;8.658;2023-06-14T09:44:53;99654.94;;;27.06;29.46
8637;BME280;4356;49.068;8.658;2023-06-14T09:47:19;99644.72;;;27.07;29.61
8637;BME280;4356;49.068;8.658;2023-06-14T09:49:46;99645.00;;;27.10;29.55
8637;BME280;4356;49.068;8.658;2023-06-14T09:52:15;99655.72;;;27.17;29.49
8637;BME280;4356;49.068;8.658;2023-06-14T09:54:42;99652.69;;;27.13;29.19
8637;BME280;4356;49.068;8.658;2023-06-14T09:57:11;99651.03;;;27.12;29.00
8637;BME280;4356;49.068;8.658;2023-06-14T09:59:43;99659.00;;;27.19;29.23
8637;BME280;4356;49.068;8.658;2023-06-14T10:02:31;99653.75;;;27.22;29.04
8637;BME280;4356;49.068;8.658;2023-06-14T10:05:03;99660.59;;;27.25;29.26
8637;BME280;4356;49.068;8.658;2023-06-14T10:07:35;99644.34;;;27.23;29.09
8637;BME280;4356;49.068;8.658;2023-06-14T10:10:01;99653.16;;;27.25;29.05
8637;BME280;4356;49.068;8.658;2023-06-14T10:12:27;99637.78;;;27.19;29.05
8637;BME280;4356;49.068;8.658;2023-06-14T10:14:53;99647.91;;;27.29;28.91
8637;BME280;4356;49.068;8.658;2023-06-14T10:17:25;99643.78;;;27.31;29.11
8637;BME280;4356;49.068;8.658;2023-06-14T10:20:10;99636.06;;;27.28;28.63
8637;BME280;4356;49.068;8.658;2023-06-14T10:22:50;99640.44;;;27.34;28.87
8637;BME280;4356;49.068;8.658;2023-06-14T10:25:29;99640.97;;;27.36;28.74
8637;BME280;4356;49.068;8.658;2023-06-14T10:28:19;99658.34;;;27.42;28.76
8637;BME280;4356;49.068;8.658;2023-06-14T10:31:04;99635.72;;;27.40;28.56
8637;BME280;4356;49.068;8.658;2023-06-14T10:33:34;99624.13;;;27.38;28.20
8637;BME280;4356;49.068;8.658;2023-06-14T10:36:28;99631.31;;;27.39;28.42
8637;BME280;4356;49.068;8.658;2023-06-14T10:39:14;99636.22;;;27.47;28.34
8637;BME280;4356;49.068;8.658;2023-06-14T10:41:41;99636.22;;;27.47;28.26
8637;BME280;4356;49.068;8.658;2023-06-14T10:46:48;99638.38;;;27.55;28.04
8637;BME280;4356;49.068;8.658;2023-06-14T10:49:37;99634.78;;;27.55;28.09
8637;BME280;4356;49.068;8.658;2023-06-14T10:52:13;99634.44;;;27.61;28.09
8637;BME280;4356;49.068;8.658;2023-06-14T10:55:10;99638.56;;;27.64;27.99
8637;BME280;4356;49.068;8.658;2023-06-14T10:57:49;99637.19;;;27.66;28.10
8637;BME280;4356;49.068;8.658;2023-06-14T11:00:18;99630.00;;;27.65;28.11
8637;BME280;4356;49.068;8.658;2023-06-14T11:05:26;99635.50;;;27.70;27.87
8637;BME280;4356;49.068;8.658;2023-06-14T11:10:43;99637.91;;;27.77;27.67
8637;BME280;4356;49.068;8.658;2023-06-14T11:13:09;99632.38;;;27.77;27.65
8637;BME280;4356;49.068;8.658;2023-06-14T11:15:36;99638.75;;;27.77;27.07
8637;BME280;4356;49.068;8.658;2023-06-14T11:18:06;99636.53;;;27.79;26.82
8637;BME280;4356;49.068;8.658;2023-06-14T11:20:34;99630.47;;;27.77;27.31
8637;BME280;4356;49.068;8.658;2023-06-14T11:23:01;99629.81;;;27.85;27.52
8637;BME280;4356;49.068;8.658;2023-06-14T11:25:27;99625.66;;;27.88;27.49
8637;BME280;4356;49.068;8.658;2023-06-14T11:27:54;99628.97;;;27.90;27.36
8637;BME280;4356;49.068;8.658;2023-06-14T11:30:19;99628.94;;;27.95;27.32
8637;BME280;4356;49.068;8.658;2023-06-14T11:32:49;99630.88;;;27.94;27.32
8637;BME280;4356;49.068;8.658;2023-06-14T11:35:16;99630.31;;;27.97;27.41
8637;BME280;4356;49.068;8.658;2023-06-14T11:37:42;99626.41;;;27.98;27.07
8637;BME280;4356;49.068;8.658;2023-06-14T11:40:10;99628.66;;;27.96;26.89
8637;BME280;4356;49.068;8.658;2023-06-14T11:42:38;99639.88;;;28.05;26.88
8637;BME280;4356;49.068;8.658;2023-06-14T11:45:07;99635.19;;;28.05;26.95
8637;BME280;4356;49.068;8.658;2023-06-14T11:47:38;99637.34;;;28.08;26.84
8637;BME280;4356;49.068;8.658;2023-06-14T11:50:06;99635.66;;;28.12;26.89
8637;BME280;4356;49.068;8.658;2023-06-14T11:52:34;99620.75;;;28.13;26.69
8637;BME280;4356;49.068;8.658;2023-06-14T11:55:01;99619.56;;;28.19;26.65
8637;BME280;4356;49.068;8.658;2023-06-14T11:57:33;99614.03;;;28.19;26.54
8637;BME280;4356;49.068;8.658;2023-06-14T11:59:59;99611.81;;;28.21;26.73
8637;BME280;4356;49.068;8.658;2023-06-14T12:02:24;99614.50;;;28.26;26.57
8637;BME280;4356;49.068;8.658;2023-06-14T12:04:53;99603.81;;;28.20;26.46
8637;BME280;4356;49.068;8.658;2023-06-14T12:07:19;99616.09;;;28.32;26.62
8637;BME280;4356;49.068;8.658;2023-06-14T12:12:22;99620.78;;;28.37;26.61
8637;BME280;4356;49.068;8.658;2023-06-14T12:14:48;99610.75;;;28.41;26.44
8637;BME280;4356;49.068;8.658;2023-06-14T12:17:16;99614.88;;;28.43;26.33
8637;BME280;4356;49.068;8.658;2023-06-14T12:19:43;99624.78;;;28.50;26.30
8637;BME280;4356;49.068;8.658;2023-06-14T12:22:10;99615.63;;;28.49;26.23
8637;BME280;4356;49.068;8.658;2023-06-14T12:24:36;99624.19;;;28.53;26.17
8637;BME280;4356;49.068;8.658;2023-06-14T12:27:03;99621.97;;;28.55;25.73
8637;BME280;4356;49.068;8.658;2023-06-14T12:29:32;99620.56;;;28.57;25.96
8637;BME280;4356;49.068;8.658;2023-06-14T12:31:59;99615.03;;;28.57;26.12
8637;BME280;4356;49.068;8.658;2023-06-14T12:34:26;99620.50;;;28.62;25.99
8637;BME280;4356;49.068;8.658;2023-06-14T12:36:53;99612.19;;;28.62;26.12
8637;BME280;4356;49.068;8.658;2023-06-14T12:39:19;99607.44;;;28.68;26.13
8637;BME280;4356;49.068;8.658;2023-06-14T12:41:45;99611.00;;;28.68;25.71
8637;BME280;4356;49.068;8.658;2023-06-14T12:44:12;99615.19;;;28.66;26.02
8637;BME280;4356;49.068;8.658;2023-06-14T12:46:39;99613.50;;;28.70;25.99
8637;BME280;4356;49.068;8.658;2023-06-14T12:49:07;99607.97;;;28.70;25.71
8637;BME280;4356;49.068;8.658;2023-06-14T12:51:33;99609.59;;;28.71;25.76
8637;BME280;4356;49.068;8.658;2023-06-14T12:53:58;99614.81;;;28.72;25.65
8637;BME280;4356;49.068;8.658;2023-06-14T12:56:24;99627.53;;;28.73;25.26
8637;BME280;4356;49.068;8.658;2023-06-14T12:58:50;99628.94;;;28.71;25.42
8637;BME280;4356;49.068;8.658;2023-06-14T13:01:15;99616.75;;;28.72;25.60
8637;BME280;4356;49.068;8.658;2023-06-14T13:03:41;99614.81;;;28.72;25.59
8637;BME280;4356;49.068;8.658;2023-06-14T13:06:06;99616.75;;;28.72;25.48
8637;BME280;4356;49.068;8.658;2023-06-14T13:08:32;99631.41;;;28.72;25.45
8637;BME280;4356;49.068;8.658;2023-06-14T13:10:58;99620.06;;;28.74;25.36
8637;BME280;4356;49.068;8.658;2023-06-14T13:13:23;99620.06;;;28.74;25.20
8637;BME280;4356;49.068;8.658;2023-06-14T13:15:49;99615.59;;;28.78;25.39
8637;BME280;4356;49.068;8.658;2023-06-14T13:18:16;99622.78;;;28.79;25.31
8637;BME280;4356;49.068;8.658;2023-06-14T13:20:42;99609.06;;;28.69;25.34
8637;BME280;4356;49.068;8.658;2023-06-14T13:23:09;99628.81;;;28.81;25.40
8637;BME280;4356;49.068;8.658;2023-06-14T13:25:38;99624.72;;;28.78;25.05
8637;BME280;4356;49.068;8.658;2023-06-14T13:28:04;99631.84;;;28.84;25.18
8637;BME280;4356;49.068;8.658;2023-06-14T13:30:31;99632.63;;;28.85;25.00
8637;BME280;4356;49.068;8.658;2023-06-14T13:32:57;99622.16;;;28.82;25.01
8637;BME280;4356;49.068;8.658;2023-06-14T13:35:24;99629.56;;;28.86;25.06
8637;BME280;4356;49.068;8.658;2023-06-14T13:37:50;99618.00;;;28.84;24.99
8637;BME280;4356;49.068;8.658;2023-06-14T13:40:15;99621.25;;;28.86;24.77